createdAt,value
2022-10-14T00:00:47.104Z,100989.13
2022-10-14T00:03:30.511Z,100980.44
2022-10-14T00:06:13.254Z,100983.63
2022-10-14T00:08:54.924Z,100979.97
2022-10-14T00:11:37.500Z,100979.69
2022-10-14T00:14:18.552Z,100978.00
2022-10-14T00:16:58.659Z,100983.63
2022-10-14T00:19:41.581Z,100972.13
2022-10-14T00:22:21.507Z,100974.63
2022-10-14T00:25:01.376Z,100971.63
2022-10-14T00:27:42.758Z,100962.31
2022-10-14T00:30:23.837Z,100976.31
2022-10-14T00:33:02.101Z,100972.69
2022-10-14T00:36:06.151Z,100958.34
2022-10-14T00:39:10.088Z,100966.97
2022-10-14T00:41:52.397Z,100963.69
2022-10-14T00:44:50.126Z,100958.34
2022-10-14T00:47:30.407Z,100956.38
2022-10-14T00:50:13.719Z,100957.34
2022-10-14T00:52:57.072Z,100951.34
2022-10-14T00:55:37.815Z,100951.66
2022-10-14T00:58:19.039Z,100951.19
2022-10-14T01:00:59.011Z,100949.66
2022-10-14T01:03:40.701Z,100945.19
2022-10-14T01:06:24.501Z,100940.06
2022-10-14T01:09:07.684Z,100939.22
2022-10-14T01:12:00.127Z,100934.88
2022-10-14T01:14:55.710Z,100923.06
2022-10-14T01:17:37.628Z,100924.88
2022-10-14T01:20:46.563Z,100924.88
2022-10-14T01:23:32.016Z,100928.56
2022-10-14T01:26:22.754Z,100921.72
2022-10-14T01:29:05.251Z,100922.41
2022-10-14T01:31:48.892Z,100913.41
2022-10-14T01:34:30.775Z,100916.91
2022-10-14T01:37:12.994Z,100914.25
2022-10-14T01:39:59.700Z,100915.09
2022-10-14T01:42:44.649Z,100912.75
2022-10-14T01:45:31.548Z,100907.09
2022-10-14T01:48:14.141Z,100900.09
2022-10-14T01:50:56.909Z,100888.75
2022-10-14T01:53:41.107Z,100889.41
2022-10-14T01:56:24.477Z,100883.56
2022-10-14T01:59:07.908Z,100884.75
2022-10-14T02:01:49.941Z,100885.56
2022-10-14T02:04:31.672Z,100882.56
2022-10-14T02:07:12.471Z,100879.72
2022-10-14T02:10:03.240Z,100870.09
2022-10-14T02:12:45.372Z,100872.91
2022-10-14T02:15:29.624Z,100865.25
2022-10-14T02:18:13.818Z,100858.09
2022-10-14T02:20:57.800Z,100861.09
2022-10-14T02:23:38.726Z,100854.91
2022-10-14T02:26:19.269Z,100851.41
2022-10-14T02:29:00.786Z,100857.09
2022-10-14T02:31:42.460Z,100841.44
2022-10-14T02:34:27.314Z,100850.25
2022-10-14T02:37:08.064Z,100844.63
2022-10-14T02:39:47.319Z,100848.25
2022-10-14T02:42:27.928Z,100840.91
2022-10-14T02:45:10.117Z,100838.75
2022-10-14T02:47:52.132Z,100841.97
2022-10-14T02:50:32.028Z,100832.59
2022-10-14T02:53:13.964Z,100826.94
2022-10-14T02:55:54.768Z,100827.47
2022-10-14T02:58:34.738Z,100832.81
2022-10-14T03:01:15.978Z,100826.47
2022-10-14T03:03:59.505Z,100819.13
2022-10-14T03:06:40.427Z,100820.97
2022-10-14T03:09:21.804Z,100822.81
2022-10-14T03:12:03.208Z,100808.81
2022-10-14T03:14:46.589Z,100813.47
2022-10-14T03:17:31.362Z,100812.63
2022-10-14T03:20:17.359Z,100808.97
2022-10-14T03:23:04.645Z,100806.13
2022-10-14T03:25:49.416Z,100817.81
2022-10-14T03:28:38.889Z,100817.25
2022-10-14T03:31:33.647Z,100802.75
2022-10-14T03:34:29.240Z,100805.59
2022-10-14T03:37:16.366Z,100798.28
2022-10-14T03:40:02.904Z,100801.94
2022-10-14T03:42:44.269Z,100805.75
2022-10-14T03:45:23.749Z,100804.44
2022-10-14T03:48:07.650Z,100801.09
2022-10-14T03:50:53.741Z,100802.75
2022-10-14T03:53:36.775Z,100810.75
2022-10-14T03:56:17.800Z,100804.75
2022-10-14T03:58:59.091Z,100812.91
2022-10-14T04:01:40.568Z,100807.44
2022-10-14T04:04:33.159Z,100811.75
2022-10-14T04:07:14.579Z,100811.75
2022-10-14T04:10:02.455Z,100819.41
2022-10-14T04:12:43.949Z,100811.94
2022-10-14T04:15:35.669Z,100807.44
2022-10-14T04:18:24.171Z,100805.09
2022-10-14T04:21:12.326Z,100816.94
2022-10-14T04:23:55.088Z,100811.09
2022-10-14T04:26:50.273Z,100812.09
2022-10-14T04:29:38.563Z,100815.25
2022-10-14T04:32:28.398Z,100801.25
2022-10-14T04:35:10.397Z,100802.44
2022-10-14T04:37:53.708Z,100795.25
2022-10-14T04:40:41.903Z,100806.44
2022-10-14T04:43:25.269Z,100800.78
2022-10-14T04:46:06.393Z,100798.94
2022-10-14T04:48:50.197Z,100797.44
2022-10-14T04:51:32.292Z,100795.44
2022-10-14T04:54:31.805Z,100790.44
2022-10-14T04:57:14.295Z,100794.09
2022-10-14T04:59:58.910Z,100796.59
2022-10-14T05:02:58.941Z,100791.44
2022-10-14T05:05:46.096Z,100786.78
2022-10-14T05:08:27.339Z,100793.09
2022-10-14T05:11:08.472Z,100785.25
2022-10-14T05:14:01.290Z,100784.09
2022-10-14T05:16:46.167Z,100789.09
2022-10-14T05:19:29.135Z,100784.59
2022-10-14T05:22:10.155Z,100791.09
2022-10-14T05:24:58.384Z,100791.75
2022-10-14T05:27:39.403Z,100784.75
2022-10-14T05:30:20.811Z,100782.44
2022-10-14T05:33:06.430Z,100792.75
2022-10-14T05:35:58.699Z,100798.09
2022-10-14T05:38:41.394Z,100791.25
2022-10-14T05:41:20.454Z,100793.09
2022-10-14T05:44:04.331Z,100785.94
2022-10-14T05:46:47.988Z,100778.78
2022-10-14T05:49:31.795Z,100792.25
2022-10-14T05:52:18.042Z,100800.09
2022-10-14T05:55:01.061Z,100790.44
2022-10-14T05:57:43.592Z,100797.72
2022-10-14T06:00:28.685Z,100792.88
2022-10-14T06:03:16.080Z,100789.56
2022-10-14T06:05:59.523Z,100787.38
2022-10-14T06:08:42.529Z,100791.38
2022-10-14T06:11:21.573Z,100782.38
2022-10-14T06:14:05.470Z,100790.22
2022-10-14T06:16:46.330Z,100777.03
2022-10-14T06:19:28.727Z,100785.72
2022-10-14T06:22:09.136Z,100786.03
2022-10-14T06:24:48.939Z,100782.88
2022-10-14T06:27:28.732Z,100785.38
2022-10-14T06:30:09.416Z,100784.22
2022-10-14T06:32:49.994Z,100786.72
2022-10-14T06:35:29.764Z,100780.22
2022-10-14T06:38:09.523Z,100772.06
2022-10-14T06:40:49.406Z,100782.44
2022-10-14T06:43:29.065Z,100778.78
2022-10-14T06:46:10.677Z,100778.44
2022-10-14T06:48:57.003Z,100785.25
2022-10-14T06:51:40.574Z,100778.09
2022-10-14T06:55:09.775Z,100783.94
2022-10-14T06:58:07.022Z,100786.09
2022-10-14T07:00:48.358Z,100784.13
2022-10-14T07:03:42.807Z,100786.13
2022-10-14T07:06:28.805Z,100785.13
2022-10-14T07:09:09.985Z,100782.97
2022-10-14T07:11:51.339Z,100788.81
2022-10-14T07:14:31.163Z,100785.47
2022-10-14T07:17:11.151Z,100784.97
2022-10-14T07:19:55.511Z,100778.50
2022-10-14T07:22:38.681Z,100791.16
2022-10-14T07:25:20.056Z,100788.00
2022-10-14T07:27:59.545Z,100793.00
2022-10-14T07:30:37.798Z,100794.00
2022-10-14T07:33:19.799Z,100798.53
2022-10-14T07:36:03.143Z,100800.72
2022-10-14T07:38:42.085Z,100802.84
2022-10-14T07:41:21.214Z,100805.88
2022-10-14T07:44:05.179Z,100807.72
2022-10-14T07:46:59.224Z,100806.03
2022-10-14T07:49:39.761Z,100812.53
2022-10-14T07:52:21.120Z,100804.72
2022-10-14T07:55:04.668Z,100810.72
2022-10-14T07:57:45.528Z,100807.41
2022-10-14T08:00:37.102Z,100809.56
2022-10-14T08:03:18.532Z,100809.56
2022-10-14T08:06:01.034Z,100811.38
2022-10-14T08:08:41.529Z,100804.03
2022-10-14T08:11:26.631Z,100806.53
2022-10-14T08:14:09.309Z,100814.50
2022-10-14T08:16:50.280Z,100811.84
2022-10-14T08:19:33.710Z,100811.81
2022-10-14T08:22:14.743Z,100803.78
2022-10-14T08:24:56.557Z,100817.13
2022-10-14T08:27:37.583Z,100826.31
2022-10-14T08:30:17.472Z,100824.41
2022-10-14T08:32:59.959Z,100830.44
2022-10-14T08:35:42.227Z,100819.72
2022-10-14T08:38:25.235Z,100823.53
2022-10-14T08:41:11.245Z,100825.53
2022-10-14T08:43:55.690Z,100819.50
2022-10-14T08:46:38.151Z,100829.31
2022-10-14T08:49:19.180Z,100826.59
2022-10-14T08:52:01.540Z,100823.53
2022-10-14T08:54:44.255Z,100820.56
2022-10-14T08:57:27.478Z,100823.34
2022-10-14T09:00:10.914Z,100823.59
2022-10-14T09:02:53.939Z,100819.66
2022-10-14T09:05:34.879Z,100823.78
2022-10-14T09:08:18.565Z,100822.59
2022-10-14T09:10:59.842Z,100818.13
2022-10-14T09:13:40.989Z,100819.63
2022-10-14T09:16:23.124Z,100824.69
2022-10-14T09:19:04.184Z,100821.09
2022-10-14T09:21:52.614Z,100821.69
2022-10-14T09:24:36.335Z,100817.72
2022-10-14T09:27:21.918Z,100813.28
2022-10-14T09:30:10.277Z,100820.50
2022-10-14T09:32:52.461Z,100814.31
2022-10-14T09:35:33.356Z,100815.13
2022-10-14T09:38:14.204Z,100812.59
2022-10-14T09:40:57.505Z,100816.09
2022-10-14T09:43:39.727Z,100811.22
2022-10-14T09:46:20.724Z,100811.22
2022-10-14T09:49:01.400Z,100805.78
2022-10-14T09:51:41.180Z,100807.34
2022-10-14T09:54:23.248Z,100788.16
2022-10-14T09:57:05.809Z,100783.72
2022-10-14T09:59:51.264Z,100785.28
2022-10-14T10:02:36.894Z,100788.25
2022-10-14T10:05:23.947Z,100783.22
2022-10-14T10:08:16.918Z,100783.44
2022-10-14T10:11:03.659Z,100779.53
2022-10-14T10:13:49.715Z,100775.03
2022-10-14T10:16:31.550Z,100780.56
2022-10-14T10:19:27.886Z,100773.06
2022-10-14T10:25:20.471Z,100770.13
2022-10-14T10:28:01.090Z,100757.06
2022-10-14T10:30:46.269Z,100759.63
2022-10-14T10:33:27.375Z,100756.91
2022-10-14T10:39:07.117Z,100755.41
2022-10-14T10:41:53.522Z,100756.22
2022-10-14T10:44:41.770Z,100749.00
2022-10-14T10:47:31.362Z,100747.03
2022-10-14T10:50:19.568Z,100738.25
2022-10-14T10:53:03.914Z,100738.06
2022-10-14T10:55:58.489Z,100739.22
2022-10-14T10:58:44.403Z,100731.06
2022-10-14T11:01:39.657Z,100736.63
2022-10-14T11:04:35.103Z,100720.31
2022-10-14T11:07:36.109Z,100732.38
2022-10-14T11:10:37.069Z,100722.28
2022-10-14T11:13:21.889Z,100721.56
2022-10-14T11:16:16.816Z,100721.97
2022-10-14T11:18:57.774Z,100728.63
2022-10-14T11:21:38.918Z,100726.13
2022-10-14T11:24:22.328Z,100724.25
2022-10-14T11:27:08.498Z,100724.97
2022-10-14T11:29:52.236Z,100731.31
2022-10-14T11:32:34.198Z,100731.38
2022-10-14T11:35:19.188Z,100726.81
2022-10-14T11:38:09.868Z,100724.19
2022-10-14T11:40:52.381Z,100722.56
2022-10-14T11:43:34.687Z,100716.00
2022-10-14T11:46:17.151Z,100714.03
2022-10-14T11:48:58.532Z,100715.88
2022-10-14T11:51:40.937Z,100720.56
2022-10-14T11:54:23.309Z,100719.31
2022-10-14T11:57:21.124Z,100718.75
2022-10-14T12:00:22.195Z,100729.38
2022-10-14T12:03:22.925Z,100712.72
2022-10-14T12:06:02.226Z,100719.28
2022-10-14T12:08:46.128Z,100716.47
2022-10-14T12:11:28.974Z,100706.59
2022-10-14T12:14:10.631Z,100704.16
2022-10-14T12:16:50.957Z,100695.38
2022-10-14T12:19:32.510Z,100688.41
2022-10-14T12:22:18.097Z,100684.34
2022-10-14T12:24:56.683Z,100683.69
2022-10-14T12:27:38.198Z,100683.84
2022-10-14T12:30:32.840Z,100685.59
2022-10-14T12:33:17.709Z,100678.59
2022-10-14T12:36:01.828Z,100690.34
2022-10-14T12:38:46.090Z,100680.22
2022-10-14T12:41:36.174Z,100676.91
2022-10-14T12:44:42.513Z,100678.69
2022-10-14T12:47:29.007Z,100667.94
2022-10-14T12:50:29.140Z,100662.88
2022-10-14T12:53:16.308Z,100665.13
2022-10-14T12:55:57.593Z,100659.97
2022-10-14T12:58:39.594Z,100659.25
2022-10-14T13:01:21.371Z,100655.88
2022-10-14T13:06:44.364Z,100640.41
2022-10-14T13:09:39.312Z,100638.25
2022-10-14T13:12:36.568Z,100623.91
2022-10-14T13:15:34.144Z,100621.47
2022-10-14T13:18:32.318Z,100611.75
2022-10-14T13:21:20.503Z,100607.50
2022-10-14T13:24:02.581Z,100600.13
2022-10-14T13:26:44.598Z,100606.03
2022-10-14T13:29:29.522Z,100589.75
2022-10-14T13:32:21.193Z,100590.94
2022-10-14T13:35:07.000Z,100579.22
2022-10-14T13:37:54.338Z,100576.06
2022-10-14T13:40:55.177Z,100567.66
2022-10-14T13:43:37.555Z,100567.69
2022-10-14T13:46:25.637Z,100562.72
2022-10-14T13:49:07.838Z,100561.69
2022-10-14T13:51:49.035Z,100557.19
2022-10-14T13:54:28.424Z,100551.72
2022-10-14T13:57:42.757Z,100555.50
2022-10-14T14:00:44.777Z,100549.13
2022-10-14T14:03:25.790Z,100551.13
2022-10-14T14:06:12.028Z,100550.97
2022-10-14T14:08:55.648Z,100546.47
2022-10-14T14:11:38.013Z,100546.03
2022-10-14T14:14:19.846Z,100543.16
2022-10-14T14:17:03.842Z,100543.38
2022-10-14T14:19:46.963Z,100541.69
2022-10-14T14:22:28.466Z,100532.34
2022-10-14T14:25:34.476Z,100527.88
2022-10-14T14:28:21.404Z,100512.16
2022-10-14T14:31:18.112Z,100506.53
2022-10-14T14:34:12.278Z,100501.50
2022-10-14T14:36:57.877Z,100487.25
2022-10-14T14:39:44.193Z,100487.75
2022-10-14T14:42:33.389Z,100482.19
2022-10-14T14:45:17.911Z,100486.41
2022-10-14T14:48:02.874Z,100478.91
2022-10-14T14:50:45.589Z,100472.72
2022-10-14T14:53:29.861Z,100471.47
2022-10-14T14:56:14.379Z,100464.75
2022-10-14T14:59:19.769Z,100454.84
2022-10-14T15:02:01.134Z,100459.03
2022-10-14T15:04:42.361Z,100453.47
2022-10-14T15:07:38.133Z,100442.78
2022-10-14T15:10:23.459Z,100449.34
2022-10-14T15:13:05.702Z,100447.94
2022-10-14T15:15:53.168Z,100440.81
2022-10-14T15:18:37.547Z,100443.59
2022-10-14T15:21:19.990Z,100446.13
2022-10-14T15:24:03.382Z,100439.88
2022-10-14T15:26:46.102Z,100445.91
2022-10-14T15:29:30.467Z,100434.81
2022-10-14T15:32:14.780Z,100437.34
2022-10-14T15:34:58.671Z,100439.22
2022-10-14T15:37:40.696Z,100438.56
2022-10-14T15:40:24.939Z,100431.72
2022-10-14T15:43:10.097Z,100440.22
2022-10-14T15:46:13.720Z,100443.47
2022-10-14T15:48:54.908Z,100439.34
2022-10-14T15:51:38.212Z,100432.75
2022-10-14T15:54:24.376Z,100430.22
2022-10-14T15:57:07.107Z,100429.84
2022-10-14T15:59:51.901Z,100418.25
2022-10-14T16:02:35.821Z,100419.06
2022-10-14T16:05:20.447Z,100421.94
2022-10-14T16:07:59.597Z,100413.28
2022-10-14T16:10:41.769Z,100410.44
2022-10-14T16:13:23.642Z,100406.31
2022-10-14T16:16:02.637Z,100409.50
2022-10-14T16:18:43.871Z,100405.25
2022-10-14T16:21:24.256Z,100398.38
2022-10-14T16:24:05.244Z,100403.31
2022-10-14T16:26:48.818Z,100393.00
2022-10-14T16:29:29.443Z,100396.56
2022-10-14T16:32:09.770Z,100386.94
2022-10-14T16:34:51.636Z,100388.72
2022-10-14T16:37:41.916Z,100388.91
2022-10-14T16:40:25.426Z,100387.41
2022-10-14T16:43:08.496Z,100382.78
2022-10-14T16:45:53.651Z,100377.06
2022-10-14T16:48:35.437Z,100375.75
2022-10-14T16:51:16.667Z,100366.69
2022-10-14T16:53:56.127Z,100366.06
2022-10-14T16:56:55.367Z,100370.16
2022-10-14T16:59:35.894Z,100363.78
2022-10-14T17:02:17.153Z,100359.84
2022-10-14T17:04:58.120Z,100357.56
2022-10-14T17:07:36.579Z,100348.16
2022-10-14T17:10:14.846Z,100347.91
2022-10-14T17:12:55.347Z,100338.78
2022-10-14T17:15:42.309Z,100338.72
2022-10-14T17:18:25.766Z,100341.59
2022-10-14T17:21:11.987Z,100337.09
2022-10-14T17:23:53.389Z,100330.88
2022-10-14T17:26:35.973Z,100325.72
2022-10-14T17:29:17.250Z,100327.91
2022-10-14T17:32:00.159Z,100319.44
2022-10-14T17:34:41.637Z,100328.47
2022-10-14T17:37:23.073Z,100329.25
2022-10-14T17:40:06.827Z,100322.44
2022-10-14T17:43:08.792Z,100322.13
2022-10-14T17:45:50.122Z,100334.34
2022-10-14T17:48:42.271Z,100342.63
2022-10-14T17:51:25.370Z,100350.41
2022-10-14T17:54:08.515Z,100355.00
2022-10-14T18:07:16.354Z,100363.19
2022-10-14T18:09:59.048Z,100354.88
2022-10-14T18:12:42.025Z,100350.44
2022-10-14T18:15:23.051Z,100344.66
2022-10-14T18:18:16.117Z,100350.00
2022-10-14T18:21:00.426Z,100343.53
2022-10-14T18:23:40.891Z,100344.44
2022-10-14T18:26:22.309Z,100341.44
2022-10-14T18:29:03.482Z,100347.88
2022-10-14T18:31:44.836Z,100351.38
2022-10-14T18:34:27.314Z,100353.03
2022-10-14T18:37:09.618Z,100350.72
2022-10-14T18:39:50.554Z,100342.91
2022-10-14T18:42:30.385Z,100335.34
2022-10-14T18:45:10.784Z,100326.50
2022-10-14T18:47:53.955Z,100329.16
2022-10-14T18:50:34.627Z,100324.84
2022-10-14T18:53:16.452Z,100316.81
2022-10-14T18:55:59.504Z,100313.31
2022-10-14T18:58:44.083Z,100307.78
2022-10-14T19:01:26.102Z,100303.38
2022-10-14T19:04:07.026Z,100299.31
2022-10-14T19:06:48.715Z,100294.44
2022-10-14T19:09:30.079Z,100287.16
2022-10-14T19:12:24.932Z,100281.25
2022-10-14T19:15:07.134Z,100278.03
2022-10-14T19:17:50.868Z,100274.06
2022-10-14T19:20:35.313Z,100263.81
2022-10-14T19:23:15.515Z,100254.91
2022-10-14T19:25:59.099Z,100251.88
2022-10-14T19:28:39.934Z,100242.19
2022-10-14T19:31:18.392Z,100243.84
2022-10-14T19:34:00.710Z,100240.78
2022-10-14T19:36:41.164Z,100237.28
2022-10-14T19:39:22.359Z,100237.38
2022-10-14T19:42:04.193Z,100233.22
2022-10-14T19:44:47.137Z,100225.00
2022-10-14T19:47:28.153Z,100225.22
2022-10-14T19:50:11.482Z,100216.66
2022-10-14T19:52:52.689Z,100213.13
2022-10-14T19:55:34.064Z,100209.81
2022-10-14T19:58:27.213Z,100211.03
2022-10-14T20:01:09.174Z,100195.38
2022-10-14T20:03:50.292Z,100184.41
2022-10-14T20:06:35.472Z,100173.91
2022-10-14T20:09:18.090Z,100168.38
2022-10-14T20:11:58.994Z,100159.34
2022-10-14T20:14:36.896Z,100163.63
2022-10-14T20:17:17.146Z,100150.06
2022-10-14T20:19:58.560Z,100150.06
2022-10-14T20:22:37.931Z,100138.16
2022-10-14T20:25:22.417Z,100121.94
2022-10-14T20:28:02.838Z,100127.47
2022-10-14T20:30:44.211Z,100108.97
2022-10-14T20:33:25.612Z,100110.44
2022-10-14T20:36:07.843Z,100119.91
2022-10-14T20:38:48.865Z,100124.22
2022-10-14T20:41:30.272Z,100115.56
2022-10-14T20:44:11.352Z,100117.63
2022-10-14T20:46:52.478Z,100114.75
2022-10-14T20:49:32.297Z,100113.47
2022-10-14T20:52:12.234Z,100110.81
2022-10-14T20:54:51.595Z,100110.63
2022-10-14T20:57:31.993Z,100103.63
2022-10-14T21:00:14.306Z,100102.78
2022-10-14T21:02:54.580Z,100102.59
2022-10-14T21:05:38.052Z,100095.31
2022-10-14T21:08:46.945Z,100101.31
2022-10-14T21:11:28.379Z,100103.34
2022-10-14T21:14:09.195Z,100089.63
2022-10-14T21:16:50.164Z,100090.81
2022-10-14T21:19:29.448Z,100089.63
2022-10-14T21:22:10.767Z,100092.84
2022-10-14T21:24:49.268Z,100084.44
2022-10-14T21:27:34.204Z,100074.88
2022-10-14T21:30:14.325Z,100072.38
2022-10-14T21:32:56.211Z,100068.69
2022-10-14T21:35:36.577Z,100068.88
2022-10-14T21:38:17.406Z,100069.72
2022-10-14T21:40:59.804Z,100067.88
2022-10-14T21:43:39.941Z,100071.16
2022-10-14T21:46:19.469Z,100079.38
2022-10-14T21:48:58.882Z,100076.50
2022-10-14T21:51:38.452Z,100073.03
2022-10-14T21:54:21.746Z,100065.00
2022-10-14T21:57:01.876Z,100059.22
2022-10-14T21:59:41.723Z,100062.53
2022-10-14T22:02:23.516Z,100057.19
2022-10-14T22:05:05.168Z,100066.22
2022-10-14T22:07:45.370Z,100059.56
2022-10-14T22:10:44.648Z,100058.56
2022-10-14T22:13:25.449Z,100062.09
2022-10-14T22:16:06.667Z,100053.41
2022-10-14T22:18:46.716Z,100052.22
2022-10-14T22:21:27.167Z,100051.41
2022-10-14T22:27:07.784Z,100058.63
2022-10-14T22:29:48.570Z,100049.78
2022-10-14T22:32:29.000Z,100047.13
2022-10-14T22:35:09.494Z,100042.78
2022-10-14T22:37:49.263Z,100041.97
2022-10-14T22:40:29.069Z,100044.25
2022-10-14T22:43:08.826Z,100044.44
2022-10-14T22:45:49.650Z,100044.25
2022-10-14T22:48:48.452Z,100051.25
2022-10-14T22:54:12.095Z,100059.72
2022-10-14T22:56:51.853Z,100050.66
2022-10-14T22:59:43.471Z,100050.66
2022-10-14T23:02:23.543Z,100045.31
2022-10-14T23:15:28.864Z,100068.56
2022-10-14T23:18:10.995Z,100062.56
2022-10-14T23:20:50.471Z,100062.38
2022-10-14T23:23:30.236Z,100062.56
2022-10-14T23:26:12.557Z,100057.81
2022-10-14T23:28:54.859Z,100068.31
2022-10-14T23:31:34.039Z,100063.34
2022-10-14T23:34:14.878Z,100060.88
2022-10-14T23:36:56.094Z,100069.91
2022-10-14T23:39:35.453Z,100069.91
2022-10-14T23:42:14.461Z,100075.78
2022-10-14T23:44:56.442Z,100079.88
2022-10-14T23:47:36.827Z,100074.09
2022-10-14T23:50:15.510Z,100064.81
2022-10-14T23:52:54.512Z,100065.53
2022-10-14T23:55:34.310Z,100065.47
2022-10-14T23:58:30.313Z,100069.34
